createdAt,value
2022-08-22T00:00:14.056Z,17.82
2022-08-22T00:02:53.052Z,16.96
2022-08-22T00:02:58.023Z,17.42
2022-08-22T00:03:04.348Z,20.21
2022-08-22T00:05:56.390Z,17.63
2022-08-22T00:08:35.184Z,16.74
2022-08-22T00:11:25.576Z,16.37
2022-08-22T00:14:01.812Z,16.97
2022-08-22T00:16:41.221Z,17.33
2022-08-22T00:19:22.226Z,14.51
2022-08-22T00:22:15.899Z,17.26
2022-08-22T00:24:52.086Z,16.89
2022-08-22T00:27:25.629Z,14.63
2022-08-22T00:30:03.053Z,17.21
2022-08-22T00:32:35.346Z,16.79
2022-08-22T00:35:05.331Z,17.09
2022-08-22T00:37:44.136Z,16.47
2022-08-22T00:40:53.573Z,16.99
2022-08-22T00:44:01.455Z,16.92
2022-08-22T00:46:59.097Z,16.84
2022-08-22T00:50:16.653Z,16.38
2022-08-22T00:52:55.089Z,16.71
2022-08-22T00:56:09.181Z,16.07
2022-08-22T00:58:54.826Z,16.53
2022-08-22T01:01:31.058Z,15.63
2022-08-22T01:04:09.560Z,16.39
2022-08-22T01:06:35.971Z,16.34
2022-08-22T01:09:46.940Z,16.30
2022-08-22T01:12:19.111Z,16.26
2022-08-22T01:15:06.066Z,15.33
2022-08-22T01:17:54.125Z,16.17
2022-08-22T01:20:24.546Z,16.12
2022-08-22T01:23:06.163Z,16.07
2022-08-22T01:26:22.535Z,16.04
2022-08-22T01:29:29.992Z,15.99
2022-08-22T01:32:25.589Z,15.95
2022-08-22T01:35:13.567Z,15.91
2022-08-22T01:38:24.047Z,15.88
2022-08-22T01:40:53.755Z,15.86
2022-08-22T01:43:59.162Z,15.69
2022-08-22T01:46:56.039Z,15.81
2022-08-22T01:49:47.324Z,15.32
2022-08-22T01:52:40.370Z,15.15
2022-08-22T01:55:13.578Z,15.66
2022-08-22T01:57:58.906Z,14.08
2022-08-22T02:00:34.781Z,15.57
2022-08-22T02:03:23.185Z,12.66
2022-08-22T02:05:59.984Z,15.18
2022-08-22T02:08:37.789Z,12.73
2022-08-22T02:11:28.654Z,15.02
2022-08-22T02:14:16.865Z,14.85
2022-08-22T02:16:48.044Z,15.24
2022-08-22T02:19:14.445Z,15.24
2022-08-22T02:22:11.940Z,15.22
2022-08-22T02:24:51.264Z,14.18
2022-08-22T02:27:42.414Z,15.23
2022-08-22T02:30:17.768Z,14.54
2022-08-22T02:33:08.644Z,14.45
2022-08-22T02:35:42.081Z,15.21
2022-08-22T02:38:31.886Z,14.57
2022-08-22T02:41:47.211Z,14.61
2022-08-22T02:44:13.681Z,15.18
2022-08-22T02:46:40.065Z,15.15
2022-08-22T02:49:30.006Z,14.90
2022-08-22T02:52:12.142Z,14.31
2022-08-22T02:54:56.825Z,15.09
2022-08-22T02:57:36.202Z,14.68
2022-08-22T03:00:31.742Z,15.04
2022-08-22T03:02:59.555Z,15.01
2022-08-22T03:05:37.039Z,14.86
2022-08-22T03:08:30.731Z,14.97
2022-08-22T03:11:00.379Z,14.95
2022-08-22T03:13:40.296Z,13.47
2022-08-22T03:16:16.372Z,14.93
2022-08-22T03:19:01.514Z,14.69
2022-08-22T03:21:35.684Z,14.16
2022-08-22T03:24:17.328Z,13.55
2022-08-22T03:26:56.752Z,14.49
2022-08-22T03:29:32.353Z,14.03
2022-08-22T03:32:13.000Z,13.68
2022-08-22T03:34:59.593Z,14.77
2022-08-22T03:37:28.811Z,14.79
2022-08-22T03:40:19.748Z,11.86
2022-08-22T03:43:06.113Z,14.19
2022-08-22T03:45:44.482Z,14.96
2022-08-22T03:48:32.443Z,14.11
2022-08-22T03:51:45.730Z,14.23
2022-08-22T03:54:30.568Z,15.09
2022-08-22T03:57:00.289Z,15.10
2022-08-22T04:00:18.477Z,15.09
2022-08-22T04:03:13.639Z,15.01
2022-08-22T04:06:11.533Z,15.01
2022-08-22T04:09:17.483Z,14.74
2022-08-22T04:11:59.897Z,14.89
2022-08-22T04:15:00.043Z,13.42
2022-08-22T04:17:33.908Z,13.90
2022-08-22T04:20:13.129Z,14.90
2022-08-22T04:23:09.667Z,14.88
2022-08-22T04:25:41.263Z,14.90
2022-08-22T04:28:28.534Z,14.62
2022-08-22T04:31:09.383Z,14.06
2022-08-22T04:33:54.875Z,14.89
2022-08-22T04:36:21.377Z,14.90
2022-08-22T04:38:54.858Z,14.07
2022-08-22T04:41:50.404Z,15.00
2022-08-22T04:44:28.022Z,14.68
2022-08-22T04:46:59.977Z,15.11
2022-08-22T04:49:37.017Z,14.42
2022-08-22T04:52:42.279Z,13.14
2022-08-22T04:55:48.921Z,15.74
2022-08-22T04:58:36.814Z,15.76
2022-08-22T05:01:16.358Z,15.58
2022-08-22T05:04:02.884Z,14.48
2022-08-22T05:06:34.268Z,15.89
2022-08-22T05:09:08.859Z,14.52
2022-08-22T05:11:37.837Z,15.88
2022-08-22T05:14:09.016Z,16.22
2022-08-22T05:16:42.307Z,16.18
2022-08-22T05:19:15.805Z,15.95
2022-08-22T05:21:45.372Z,14.44
2022-08-22T05:24:23.677Z,15.76
2022-08-22T05:26:57.469Z,16.48
2022-08-22T05:29:28.610Z,16.07
2022-08-22T05:32:06.733Z,16.57
2022-08-22T05:34:39.990Z,15.82
2022-08-22T05:37:29.686Z,17.15
2022-08-22T05:40:00.053Z,17.53
2022-08-22T05:42:31.342Z,16.95
2022-08-22T05:44:57.927Z,16.36
2022-08-22T05:47:44.213Z,17.08
2022-08-22T05:50:30.659Z,16.90
2022-08-22T05:53:11.663Z,16.14
2022-08-22T05:55:53.637Z,16.52
2022-08-22T05:58:32.482Z,16.48
2022-08-22T06:01:13.593Z,16.74
2022-08-22T06:04:25.494Z,16.83
2022-08-22T06:06:54.882Z,17.08
2022-08-22T06:09:35.578Z,16.15
2022-08-22T06:12:18.165Z,17.22
2022-08-22T06:15:15.279Z,16.27
2022-08-22T06:17:56.392Z,17.48
2022-08-22T06:20:39.391Z,17.33
2022-08-22T06:23:08.224Z,16.78
2022-08-22T06:25:38.980Z,15.27
2022-08-22T06:28:12.018Z,17.59
2022-08-22T06:30:39.524Z,17.27
2022-08-22T06:33:12.841Z,17.64
2022-08-22T06:36:22.522Z,17.68
2022-08-22T06:39:20.117Z,17.75
2022-08-22T06:41:54.954Z,17.87
2022-08-22T06:44:26.216Z,15.44
2022-08-22T06:46:57.562Z,18.47
2022-08-22T06:49:26.644Z,18.39
2022-08-22T06:51:59.847Z,19.23
2022-08-22T06:54:34.278Z,18.62
2022-08-22T06:57:03.225Z,19.52
2022-08-22T06:59:35.314Z,20.03
2022-08-22T07:02:38.096Z,19.94
2022-08-22T07:05:06.783Z,20.40
2022-08-22T07:07:35.862Z,20.32
2022-08-22T07:10:02.741Z,19.50
2022-08-22T07:12:32.291Z,18.55
2022-08-22T07:15:09.089Z,20.12
2022-08-22T07:17:40.079Z,20.43
2022-08-22T07:20:24.503Z,21.01
2022-08-22T07:22:55.141Z,20.27
2022-08-22T07:25:24.237Z,21.05
2022-08-22T07:28:05.927Z,21.58
2022-08-22T07:31:05.924Z,21.89
2022-08-22T07:33:50.360Z,21.45
2022-08-22T07:36:31.447Z,22.04
2022-08-22T07:39:13.240Z,21.32
2022-08-22T07:42:05.532Z,22.01
2022-08-22T07:45:11.027Z,22.94
2022-08-22T07:47:54.943Z,22.70
2022-08-22T07:50:30.001Z,22.33
2022-08-22T07:53:08.673Z,23.42
2022-08-22T07:55:42.180Z,23.39
2022-08-22T07:58:18.186Z,22.27
2022-08-22T08:00:46.813Z,22.44
2022-08-22T08:03:13.828Z,23.28
2022-08-22T08:05:44.587Z,23.33
2022-08-22T08:08:25.394Z,23.26
2022-08-22T08:10:56.317Z,23.49
2022-08-22T08:13:35.138Z,23.36
2022-08-22T08:16:04.484Z,22.84
2022-08-22T08:18:34.305Z,23.96
2022-08-22T08:21:06.698Z,24.22
2022-08-22T08:23:40.322Z,24.34
2022-08-22T08:26:22.688Z,24.32
2022-08-22T08:28:52.590Z,24.50
2022-08-22T08:31:27.776Z,24.53
2022-08-22T08:34:03.415Z,24.24
2022-08-22T08:36:44.107Z,24.37
2022-08-22T08:39:21.260Z,24.22
2022-08-22T08:41:57.003Z,24.44
2022-08-22T08:44:50.924Z,24.21
2022-08-22T08:47:35.626Z,24.28
2022-08-22T08:50:25.166Z,24.33
2022-08-22T08:53:38.023Z,23.89
2022-08-22T08:56:25.421Z,24.57
2022-08-22T08:59:03.661Z,24.69
2022-08-22T09:01:56.681Z,24.79
2022-08-22T09:04:38.826Z,24.38
2022-08-22T09:07:23.426Z,24.58
2022-08-22T09:10:04.822Z,25.28
2022-08-22T09:13:11.440Z,25.02
2022-08-22T09:16:07.161Z,25.26
2022-08-22T09:19:06.489Z,25.38
2022-08-22T09:21:58.478Z,24.47
2022-08-22T09:25:06.286Z,24.82
2022-08-22T09:27:53.806Z,24.27
2022-08-22T09:30:28.578Z,24.52
2022-08-22T09:33:33.487Z,25.50
2022-08-22T09:36:06.211Z,25.14
2022-08-22T09:38:50.085Z,24.48
2022-08-22T09:41:51.667Z,25.77
2022-08-22T09:44:41.342Z,25.16
2022-08-22T09:47:24.285Z,24.61
2022-08-22T09:50:13.579Z,25.93
2022-08-22T09:53:03.562Z,26.28
2022-08-22T09:55:48.634Z,26.83
2022-08-22T09:58:28.271Z,26.53
2022-08-22T10:01:23.833Z,27.52
2022-08-22T10:04:14.774Z,27.71
2022-08-22T10:07:12.065Z,27.05
2022-08-22T10:09:54.909Z,28.72
2022-08-22T10:12:35.156Z,28.55
2022-08-22T10:15:11.497Z,26.49
2022-08-22T10:17:53.932Z,27.39
2022-08-22T10:20:29.955Z,27.26
2022-08-22T10:23:21.184Z,27.98
2022-08-22T10:26:01.690Z,27.15
2022-08-22T10:28:48.533Z,27.76
2022-08-22T10:31:30.248Z,28.02
2022-08-22T10:34:19.606Z,28.01
2022-08-22T10:37:10.244Z,27.07
2022-08-22T10:40:07.865Z,27.34
2022-08-22T10:42:45.515Z,27.81
2022-08-22T10:45:36.661Z,26.87
2022-08-22T10:48:07.992Z,27.57
2022-08-22T10:50:51.913Z,27.92
2022-08-22T10:53:33.420Z,28.33
2022-08-22T10:56:43.897Z,27.99
2022-08-22T10:59:13.497Z,28.58
2022-08-22T11:02:01.805Z,28.15
2022-08-22T11:04:59.466Z,29.22
2022-08-22T11:07:28.983Z,29.35
2022-08-22T11:10:05.159Z,29.26
2022-08-22T11:12:34.902Z,29.57
2022-08-22T11:15:40.550Z,29.14
2022-08-22T11:18:42.583Z,29.49
2022-08-22T11:21:59.327Z,29.53
2022-08-22T11:24:35.737Z,29.97
2022-08-22T11:27:41.275Z,30.20
2022-08-22T11:30:24.011Z,29.64
2022-08-22T11:32:59.582Z,29.44
2022-08-22T11:35:36.908Z,29.11
2022-08-22T11:38:36.175Z,28.14
2022-08-22T11:41:12.997Z,27.84
2022-08-22T11:44:03.001Z,28.68
2022-08-22T11:46:36.811Z,27.72
2022-08-22T11:49:28.502Z,28.79
2022-08-22T11:52:23.546Z,29.02
2022-08-22T11:55:18.495Z,28.81
2022-08-22T11:57:50.045Z,28.82
2022-08-22T12:00:25.375Z,28.90
2022-08-22T12:03:32.942Z,28.49
2022-08-22T12:06:34.741Z,28.07
2022-08-22T12:09:18.815Z,29.15
2022-08-22T12:11:58.848Z,29.19
2022-08-22T12:14:54.619Z,28.87
2022-08-22T12:18:01.607Z,29.05
2022-08-22T12:20:52.344Z,29.26
2022-08-22T12:24:06.333Z,29.28
2022-08-22T12:27:18.287Z,29.43
2022-08-22T12:30:18.812Z,30.00
2022-08-22T12:33:03.420Z,30.36
2022-08-22T12:35:40.991Z,29.91
2022-08-22T12:38:30.672Z,30.17
2022-08-22T12:41:28.167Z,29.88
2022-08-22T12:44:01.197Z,30.18
2022-08-22T12:46:48.362Z,29.62
2022-08-22T12:49:21.918Z,29.92
2022-08-22T12:52:09.687Z,29.78
2022-08-22T12:54:47.968Z,29.61
2022-08-22T12:57:58.827Z,29.04
2022-08-22T13:00:45.171Z,29.97
2022-08-22T13:03:18.122Z,29.75
2022-08-22T13:05:56.258Z,29.21
2022-08-22T13:08:29.564Z,29.91
2022-08-22T13:11:02.027Z,29.60
2022-08-22T13:13:37.082Z,29.63
2022-08-22T13:16:11.578Z,29.13
2022-08-22T13:18:53.562Z,29.12
2022-08-22T13:21:26.470Z,29.53
2022-08-22T13:24:10.462Z,29.72
2022-08-22T13:26:45.773Z,29.99
2022-08-22T13:29:26.561Z,30.00
2022-08-22T13:32:01.837Z,29.91
2022-08-22T13:34:43.567Z,29.41
2022-08-22T13:37:17.842Z,30.27
2022-08-22T13:39:50.113Z,30.03
2022-08-22T13:42:31.137Z,30.15
2022-08-22T13:45:03.018Z,29.75
2022-08-22T13:47:39.438Z,29.21
2022-08-22T13:50:12.468Z,29.49
2022-08-22T13:52:52.168Z,28.90
2022-08-22T13:55:43.095Z,29.40
2022-08-22T13:58:41.721Z,28.62
2022-08-22T14:01:37.787Z,29.50
2022-08-22T14:04:33.420Z,29.48
2022-08-22T14:07:03.573Z,29.69
2022-08-22T14:09:49.151Z,29.66
2022-08-22T14:12:33.586Z,28.01
2022-08-22T14:15:23.479Z,29.40
2022-08-22T14:17:54.721Z,29.79
2022-08-22T14:20:33.818Z,29.38
2022-08-22T14:23:32.793Z,30.36
2022-08-22T14:26:02.455Z,29.96
2022-08-22T14:28:33.415Z,29.80
2022-08-22T14:31:13.573Z,29.54
2022-08-22T14:33:47.910Z,30.19
2022-08-22T14:36:20.074Z,29.78
2022-08-22T14:38:53.336Z,29.39
2022-08-22T14:41:56.561Z,29.62
2022-08-22T14:44:36.654Z,29.59
2022-08-22T14:47:30.342Z,29.17
2022-08-22T14:50:00.867Z,30.18
2022-08-22T14:52:30.139Z,30.73
2022-08-22T14:55:13.870Z,29.98
2022-08-22T14:57:45.928Z,29.98
2022-08-22T15:00:24.379Z,31.08
2022-08-22T15:03:07.750Z,30.58
2022-08-22T15:06:02.511Z,30.88
2022-08-22T15:08:42.188Z,31.02
2022-08-22T15:11:25.038Z,30.67
2022-08-22T15:14:21.653Z,30.31
2022-08-22T15:16:55.647Z,30.90
2022-08-22T15:19:41.740Z,31.19
2022-08-22T15:22:25.896Z,31.48
2022-08-22T15:25:15.547Z,31.16
2022-08-22T15:27:48.800Z,31.29
2022-08-22T15:30:18.820Z,28.96
2022-08-22T15:32:48.920Z,30.24
2022-08-22T15:35:27.701Z,29.55
2022-08-22T15:38:27.592Z,29.41
2022-08-22T15:40:55.752Z,29.10
2022-08-22T15:43:35.103Z,29.05
2022-08-22T15:46:17.805Z,28.81
2022-08-22T15:49:16.696Z,29.03
2022-08-22T15:51:55.148Z,27.10
2022-08-22T15:54:25.812Z,28.87
2022-08-22T15:56:52.772Z,28.99
2022-08-22T15:59:28.503Z,28.94
2022-08-22T16:02:04.846Z,28.80
2022-08-22T16:04:43.678Z,27.61
2022-08-22T16:07:37.913Z,28.86
2022-08-22T16:10:22.846Z,28.90
2022-08-22T16:13:17.122Z,28.53
2022-08-22T16:15:55.697Z,28.54
2022-08-22T16:18:37.052Z,28.49
2022-08-22T16:21:08.298Z,28.58
2022-08-22T16:23:50.765Z,28.55
2022-08-22T16:26:38.634Z,28.22
2022-08-22T16:29:17.302Z,28.45
2022-08-22T16:31:46.861Z,28.35
2022-08-22T16:34:19.045Z,28.42
2022-08-22T16:36:51.612Z,28.38
2022-08-22T16:39:23.627Z,28.47
2022-08-22T16:41:52.951Z,28.35
2022-08-22T16:44:38.531Z,28.35
2022-08-22T16:47:17.395Z,28.29
2022-08-22T16:49:43.708Z,28.27
2022-08-22T16:52:25.567Z,28.13
2022-08-22T16:54:55.698Z,27.78
2022-08-22T16:57:54.462Z,27.59
2022-08-22T17:00:34.042Z,27.92
2022-08-22T17:03:38.076Z,27.82
2022-08-22T17:06:07.256Z,27.91
2022-08-22T17:08:50.865Z,27.88
2022-08-22T17:11:39.555Z,27.71
2022-08-22T17:14:37.806Z,27.85
2022-08-22T17:17:55.342Z,27.73
2022-08-22T17:20:39.984Z,27.65
2022-08-22T17:23:51.014Z,27.59
2022-08-22T17:26:36.057Z,27.44
2022-08-22T17:29:33.424Z,27.37
2022-08-22T17:32:13.250Z,26.94
2022-08-22T17:34:55.020Z,26.61
2022-08-22T17:37:40.542Z,26.91
2022-08-22T17:40:25.107Z,25.73
2022-08-22T17:42:54.804Z,26.69
2022-08-22T17:45:59.967Z,26.62
2022-08-22T17:48:29.739Z,26.50
2022-08-22T17:51:28.347Z,26.02
2022-08-22T17:54:05.630Z,26.20
2022-08-22T17:56:47.209Z,25.73
2022-08-22T17:59:30.967Z,26.25
2022-08-22T18:02:43.978Z,24.10
2022-08-22T18:05:17.208Z,25.88
2022-08-22T18:08:03.714Z,25.43
2022-08-22T18:10:39.567Z,25.94
2022-08-22T18:13:14.909Z,25.85
2022-08-22T18:15:55.278Z,25.61
2022-08-22T18:18:36.345Z,25.18
2022-08-22T18:21:14.975Z,25.66
2022-08-22T18:23:47.677Z,25.59
2022-08-22T18:26:28.577Z,25.25
2022-08-22T18:29:08.289Z,25.38
2022-08-22T18:32:01.254Z,25.33
2022-08-22T18:34:40.919Z,21.67
2022-08-22T18:37:37.142Z,25.17
2022-08-22T18:40:08.913Z,25.08
2022-08-22T18:42:44.894Z,24.56
2022-08-22T18:45:44.495Z,23.47
2022-08-22T18:48:21.270Z,24.69
2022-08-22T18:50:49.298Z,24.86
2022-08-22T18:53:38.658Z,24.82
2022-08-22T18:56:17.490Z,24.72
2022-08-22T18:58:54.146Z,24.61
2022-08-22T19:02:09.786Z,24.67
2022-08-22T19:05:13.318Z,24.67
2022-08-22T19:08:09.975Z,24.64
2022-08-22T19:10:52.624Z,21.57
2022-08-22T19:13:38.190Z,24.57
2022-08-22T19:16:26.448Z,24.52
2022-08-22T19:18:59.655Z,24.43
2022-08-22T19:21:52.075Z,24.35
2022-08-22T19:24:27.747Z,24.27
2022-08-22T19:27:19.203Z,24.21
2022-08-22T19:29:45.586Z,24.15
2022-08-22T19:32:43.975Z,24.10
2022-08-22T19:35:36.243Z,23.32
2022-08-22T19:38:06.274Z,23.18
2022-08-22T19:40:45.477Z,23.96
2022-08-22T19:43:31.760Z,23.93
2022-08-22T19:46:00.788Z,22.19
2022-08-22T19:48:32.297Z,23.80
2022-08-22T19:51:25.540Z,22.79
2022-08-22T19:54:08.616Z,23.67
2022-08-22T19:56:51.928Z,23.63
2022-08-22T19:59:51.062Z,22.60
2022-08-22T20:02:35.351Z,23.50
2022-08-22T20:05:17.600Z,23.45
2022-08-22T20:07:56.371Z,22.48
2022-08-22T20:10:27.629Z,23.29
2022-08-22T20:13:07.566Z,23.24
2022-08-22T20:15:59.930Z,22.75
2022-08-22T20:18:52.533Z,23.03
2022-08-22T20:22:04.736Z,22.94
2022-08-22T20:24:44.684Z,22.74
2022-08-22T20:27:20.055Z,22.85
2022-08-22T20:29:52.918Z,22.18
2022-08-22T20:32:23.053Z,22.86
2022-08-22T20:34:56.897Z,22.74
2022-08-22T20:37:45.441Z,21.08
2022-08-22T20:40:55.652Z,22.90
2022-08-22T20:43:15.639Z,21.07
2022-08-22T20:45:58.251Z,22.57
2022-08-22T20:48:36.314Z,22.55
2022-08-22T20:51:09.211Z,22.12
2022-08-22T20:53:36.460Z,22.56
2022-08-22T20:56:07.058Z,22.53
2022-08-22T20:58:39.701Z,22.77
2022-08-22T21:01:06.959Z,22.76
2022-08-22T21:03:46.960Z,22.39
2022-08-22T21:06:29.418Z,22.66
2022-08-22T21:09:32.437Z,22.09
2022-08-22T21:12:01.077Z,21.54
2022-08-22T21:14:33.518Z,22.53
2022-08-22T21:17:18.633Z,20.74
2022-08-22T21:19:45.106Z,22.39
2022-08-22T21:22:17.909Z,20.50
2022-08-22T21:24:45.659Z,20.93
2022-08-22T21:27:21.259Z,21.62
2022-08-22T21:29:47.891Z,21.52
2022-08-22T21:32:14.275Z,21.91
2022-08-22T21:34:47.585Z,21.81
2022-08-22T21:37:18.031Z,20.93
2022-08-22T21:39:51.015Z,21.65
2022-08-22T21:42:27.143Z,20.86
2022-08-22T21:45:03.114Z,20.39
2022-08-22T21:47:33.410Z,21.04
2022-08-22T21:50:25.753Z,21.33
2022-08-22T21:52:55.474Z,21.26
2022-08-22T21:55:21.883Z,21.22
2022-08-22T21:58:09.973Z,21.03
2022-08-22T22:00:48.885Z,21.11
2022-08-22T22:03:18.970Z,20.62
2022-08-22T22:05:46.030Z,20.23
2022-08-22T22:08:12.573Z,20.42
2022-08-22T22:10:42.095Z,20.33
2022-08-22T22:13:09.865Z,18.65
2022-08-22T22:15:44.144Z,19.50
2022-08-22T22:18:13.518Z,20.11
2022-08-22T22:20:41.480Z,20.32
2022-08-22T22:23:08.473Z,20.59
2022-08-22T22:25:41.066Z,18.51
2022-08-22T22:28:12.205Z,20.48
2022-08-22T22:30:39.605Z,19.70
2022-08-22T22:33:06.457Z,19.82
2022-08-22T22:35:33.919Z,20.32
2022-08-22T22:38:01.009Z,19.63
2022-08-22T22:40:27.650Z,19.59
2022-08-22T22:42:54.155Z,17.22
2022-08-22T22:45:20.604Z,19.75
2022-08-22T22:47:47.009Z,20.11
2022-08-22T22:50:13.694Z,18.09
2022-08-22T22:52:40.838Z,18.45
2022-08-22T22:55:08.182Z,19.72
2022-08-22T22:57:41.343Z,19.57
2022-08-22T23:00:10.752Z,19.83
2022-08-22T23:02:37.253Z,19.23
2022-08-22T23:05:04.122Z,18.91
2022-08-22T23:07:33.977Z,19.73
2022-08-22T23:10:01.431Z,16.71
2022-08-22T23:12:28.741Z,19.74
2022-08-22T23:14:55.301Z,19.02
2022-08-22T23:17:21.787Z,19.91
2022-08-22T23:19:48.348Z,18.70
2022-08-22T23:22:14.923Z,19.04
2022-08-22T23:24:41.919Z,19.10
2022-08-22T23:27:10.068Z,19.56
2022-08-22T23:29:40.866Z,19.60
2022-08-22T23:32:09.038Z,17.94
2022-08-22T23:34:39.018Z,19.64
2022-08-22T23:37:07.153Z,17.59
2022-08-22T23:39:35.267Z,19.57
2022-08-22T23:42:02.432Z,18.80
2022-08-22T23:44:32.147Z,19.10
2022-08-22T23:47:00.042Z,19.34
2022-08-22T23:49:27.292Z,16.66
2022-08-22T23:51:54.371Z,17.86
2022-08-22T23:54:22.417Z,19.16
2022-08-22T23:56:52.582Z,18.43
2022-08-22T23:59:22.663Z,16.97
